Flight Track Log - Related Links

Times and Time Zones

All times are in EDT time to prevent confusion due to time zone crossing. See the SAS2537 flight status page for this flight to view local times or setup timezone preferences in your user account.

Time Position Orientation Groundspeed Altitude Reporting Facility
EDT Latitude Longitude Course Direction KTS MPH feet Rate Location/Type
Mon 04:47:38 PM 55.6090 12.6290 180° South 125 144  Level FlightAware
Mon 04:47:57 PM 55.5986 12.6135 220° Southwest 160 184 900 2,850 Climbing FlightAware (ETSF / FEL)
Mon 04:48:18 PM 55.5873 12.5960 221° Southwest 148 170 1,900 2,250 Climbing FlightAware (ETSF / FEL)
Mon 04:48:53 PM 55.5681 12.5661 221° Southwest 177 204 3,000 1,556 Climbing FlightAware (ETSF / FEL)
Mon 04:49:12 PM 55.5579 12.5412 234° Southwest 202 232 3,300 1,200 Climbing FlightAware (ETSF / FEL)
Mon 04:49:23 PM 55.5575 12.5237 268° West 210 242 3,600 1,548 Climbing FlightAware (ETSF / FEL)
Mon 04:49:43 PM 55.5590 12.4872 274° West 236 272 4,100 1,571 Climbing FlightAware (ETSF / FEL)
Mon 04:50:05 PM 55.5615 12.4430 276° West 260 299 4,700 2,250 Climbing FlightAware (ETSF / FEL)
Mon 04:50:23 PM 55.5638 12.4024 276° West 267 307 5,600 3,366 Climbing FlightAware (ETSF / FEL)
Mon 04:50:46 PM 55.5660 12.3575 275° West 264 304 7,000 3,209 Climbing FlightAware (ETSF / FEL)
Mon 04:51:06 PM 55.5681 12.3117 275° West 268 308 7,900 2,864 Climbing FlightAware (ETSF / FEL)
Mon 04:51:30 PM 55.5704 12.2622 275° West 273 314 9,100 3,333 Climbing FlightAware (ETSF / FEL)
Mon 04:52:00 PM 55.5737 12.1930 275° West 264 304 10,900 3,086 Climbing FlightAware (ETSF / FEL)
Mon 04:52:40 PM 55.5775 12.1074 275° West 274 315 12,700 2,270 Climbing FlightAware (ETSF / FEL)
Mon 04:53:14 PM 55.5808 12.0276 274° West 296 341 13,700 1,973 Climbing FlightAware (ETSF / FEL)
Mon 04:53:53 PM 55.5837 11.9306 273° West 308 354 15,100 1,737 Climbing FlightAware (ETSF / FEL)
Mon 04:54:30 PM 55.5832 11.8418 269° West 329 379 15,900 1,714 Climbing FlightAware (ETSF / FEL)
Mon 04:55:10 PM 55.5830 11.7250 270° West 338 389 17,300 2,154 Climbing FlightAware (ETSF / FEL)
Mon 04:55:48 PM 55.5833 11.6206 270° West 343 395 18,700 1,941 Climbing FlightAware (ETSF / FEL)
Mon 04:56:18 PM 55.5834 11.5338 270° West 352 405 19,500 1,770 Climbing FlightAware (ETSF / FEL)
Mon 04:56:49 PM 55.5834 11.4455 270° West 357 411 20,500 2,262 Climbing FlightAware (ETSF / FEL)
Mon 04:57:19 PM 55.5835 11.3596 270° West 349 402 21,800 2,459 Climbing FlightAware (ETSF / FEL)
Mon 04:57:50 PM 55.5841 11.2737 271° West 344 396 23,000 1,967 Climbing FlightAware (ETSF / FEL)
Mon 04:58:20 PM 55.5903 11.1894 277° West 350 403 23,800 1,574 Climbing FlightAware (ETSF / FEL)
Mon 04:58:51 PM 55.5965 11.1080 278° West 351 404 24,600 1,440 Climbing FlightAware (ETSF / FEL)
Mon 04:59:10 PM 55.6009 11.0470 277° West 353 406 25,000 1,529 Climbing FlightAware
Mon 04:59:42 PM 55.6071 10.9630 277° West 350 403 25,900 1,524 Climbing FlightAware (ETSF / FEL)
Mon 05:00:13 PM 55.6134 10.8752 277° West 354 407 26,600 1,065 Climbing FlightAware
Mon 05:00:44 PM 55.6199 10.7838 277° West 360 414 27,000 787 Climbing FlightAware
Mon 05:01:14 PM 55.6265 10.6882 277° West 366 421 27,400 700 Climbing FlightAware
Mon 05:01:44 PM 55.6324 10.6038 277° West 373 429 27,700 800 Climbing FlightAware (ETSF / FEL)
Mon 05:02:14 PM 55.6393 10.5053 277° West 377 434 28,200 1,082 Climbing FlightAware
Mon 05:02:45 PM 55.6430 10.4175 274° West 365 420 28,800 1,180 Climbing FlightAware
Mon 05:03:15 PM 55.6380 10.3273 264° West 361 415 29,400 1,015 Climbing FlightAware
Mon 05:03:50 PM 55.6312 10.2232 263° West 365 420 29,900 761 Climbing FlightAware (ETSF / FEL)
Mon 05:04:26 PM 55.6231 10.1166 262° West 368 423 30,300 1,000 Climbing FlightAware
Mon 05:04:56 PM 55.6159 10.0267 262° West 364 419 31,000 1,031 Climbing FlightAware
Mon 05:05:30 PM 55.6089 9.9391 262° West 365 420 31,400 1,108 Climbing FlightAware (ETSF / FEL)
Mon 05:06:01 PM 55.6015 9.8401 263° West 361 415 32,200 1,065 Climbing FlightAware (ETSF / FEL)
Mon 05:06:32 PM 55.5951 9.7454 263° West 367 422 32,500 1,108 Climbing FlightAware (ETSF / FEL)
Mon 05:07:06 PM 55.5884 9.6457 263° West 357 411 33,400 1,457 Climbing FlightAware
Mon 05:07:42 PM 55.5823 9.5435 264° West 357 411 34,200 818 Climbing FlightAware (ETSF / FEL)
Mon 05:08:12 PM 55.5884 9.4524 277° West 373 429 34,300 295 Climbing FlightAware (ETSF / FEL)
Mon 05:08:43 PM 55.5948 9.3683 278° West 379 436 34,500 393 Climbing FlightAware (ETSF / FEL)
Mon 05:09:13 PM 55.6023 9.2657 277° West 384 442 34,700 295 Climbing FlightAware (ETSF / FEL)
Mon 05:09:44 PM 55.6093 9.1695 277° West 390 449 34,800 281 Climbing FlightAware (ETSF / FEL)
Mon 05:10:17 PM 55.6171 9.0633 277° West 396 456 35,000 500 Climbing FlightAware
Mon 05:10:32 PM 55.6199 9.0251 277° West 396 456 35,200 766 Climbing FlightAware
Mon 05:11:04 PM 55.6281 8.9129 277° West 394 453 35,600 484 Climbing FlightAware (ETSF / FEL)
Mon 05:11:34 PM 55.6350 8.8220 278° West 396 456 35,700 383 Climbing FlightAware
Mon 05:11:51 PM 55.6321 8.8572 98° East 397 457 35,900 316 Climbing FlightAware (ETSF / FEL)
Mon 05:12:31 PM 55.6473 8.6359 277° West 398 458 36,000 81 Climbing FlightAware (ETSF / FEL)
Mon 05:13:05 PM 55.6531 8.5522 277° West 397 457 36,000  Level FlightAware (ETSF / FEL)
Mon 05:13:49 PM 55.6635 8.3971 277° West 402 463 36,000  Level FlightAware (ETSF / FEL)
Mon 05:14:20 PM 55.6710 8.2810 277° West 397 457 36,000  Level FlightAware
Mon 05:14:51 PM 55.6770 8.1850 276° West 393 452 36,000  Level FlightAware
Mon 05:15:18 PM 55.6834 8.0948 277° West 391 450 36,000  Level FlightAware (ETSF / FEL)
Mon 05:16:13 PM 55.6906 7.9808 276° West 389 448 36,000  Level FlightAware (ETSF / FEL)
Mon 05:16:51 PM 55.7017 7.7993 276° West 393 452 36,000  Level FlightAware (ETSF / FEL)
Mon 05:17:25 PM 55.7080 7.6940 276° West 397 457 36,000  Level FlightAware
Mon 05:18:21 PM 55.7190 7.5110 276° West 398 458 36,000  Level FlightAware
Mon 05:18:52 PM 55.7250 7.4110 276° West 401 461 36,000  Level FlightAware
Mon 05:19:23 PM 55.7310 7.3090 276° West 404 465 36,000  Level FlightAware
Mon 05:20:21 PM 55.7420 7.1160 276° West 409 471 36,000  Level FlightAware
Mon 05:20:57 PM 55.7480 6.9990 275° West 408 470 36,000  Level FlightAware
Mon 05:21:35 PM 55.7560 6.8700 276° West 410 472 36,000  Level FlightAware
Mon 05:22:14 PM 55.7630 6.7380 275° West 413 475 36,000  Level FlightAware
Mon 05:22:51 PM 55.7690 6.6140 275° West 413 475 36,000  Level FlightAware
Mon 05:23:28 PM 55.7750 6.4900 275° West 414 476 36,000 -78 Level FlightAware
Mon 05:24:08 PM 55.7808 6.3546 275° West 1 1 35,900  Descending FlightAware
Mon 05:24:24 PM 55.7850 6.3000 275° West 416 479 36,000 76 Climbing FlightAware
Mon 05:25:27 PM 55.7950 6.0840 275° West 419 482 36,000 -88 Level FlightAware
Mon 05:25:32 PM 55.7939 6.0705 275° West 1 1 35,900  Descending FlightAware
Mon 05:25:59 PM 55.8000 5.9740 275° West 420 483 36,000 200 Climbing FlightAware
Mon 05:26:02 PM 55.7985 5.9684 275° West 1 1 36,000  Level FlightAware
Mon 05:26:32 PM 55.8055 5.8616 275° West 1 1 36,000  Level FlightAware
Mon 05:26:52 PM 55.8090 5.7950 275° West 420 483 36,000  Level FlightAware
Mon 05:27:32 PM 55.8151 5.6549 275° West 1 1 36,000  Level FlightAware
Mon 05:27:39 PM 55.8160 5.6340 275° West 420 483 36,000  Level FlightAware
Mon 05:28:20 PM 55.8222 5.4899 275° West 466 536 36,000  Level FlightAware
Mon 05:28:20 PM 55.8220 5.4900 275° West 420 483 36,000  Level FlightAware
Mon 05:28:50 PM 55.8265 5.3869 275° West 464 534 36,000  Level FlightAware
Mon 05:29:12 PM 55.8290 5.3180 275° West 420 483 36,000  Level FlightAware
Mon 05:29:46 PM 55.8340 5.1950 274° West 421 484 36,000 -76 Level FlightAware
Mon 05:30:31 PM 55.8407 5.0362 274° West 462 532 35,900  Descending FlightAware
Mon 05:30:49 PM 55.8430 4.9770 274° West 423 487 36,000 122 Climbing FlightAware
Mon 05:31:20 PM 55.8460 4.8750 273° West 425 489 36,000  Level FlightAware
Mon 05:31:47 PM 55.8500 4.7910 275° West 426 490 36,000  Level FlightAware
Mon 05:32:29 PM 55.8550 4.6330 273° West 423 487 36,000  Level FlightAware
Mon 05:32:51 PM 55.8580 4.5580 273° West 423 487 36,000  Level FlightAware
Mon 05:33:01 PM 55.8596 4.5158 273° West 464 534 36,000 -94 Level FlightAware
Mon 05:33:55 PM 55.8659 4.3278 273° West 464 534 35,900  Descending FlightAware
Mon 05:34:09 PM 55.8670 4.2870 273° West 425 489 36,000 128 Climbing FlightAware
Mon 05:34:42 PM 55.8710 4.1680 273° West 425 489 36,000 -64 Level FlightAware
Mon 05:35:43 PM 55.8774 3.9512 273° West 468 539 35,900  Descending FlightAware
Mon 05:35:46 PM 55.8780 3.9400 273° West 427 491 36,000 100 Climbing FlightAware
Mon 05:36:43 PM 55.8839 3.7405 273° West 470 541 36,000  Level FlightAware
Mon 05:36:48 PM 55.8840 3.7320 273° West 426 490 36,000  Level FlightAware
Mon 05:37:25 PM 55.8880 3.6040 273° West 423 487 36,000  Level FlightAware
Mon 05:37:58 PM 55.8910 3.4810 273° West 423 487 36,000  Level FlightAware
Mon 05:38:29 PM 55.8940 3.3750 273° West 422 486 36,000  Level FlightAware
Mon 05:39:07 PM 55.8970 3.2450 272° West 420 483 36,000  Level FlightAware
Mon 05:39:38 PM 55.8990 3.1580 272° West 420 483 36,000 -71 Level FlightAware
Mon 05:40:31 PM 55.9032 2.9516 272° West 462 532 35,900  Descending FlightAware
Mon 05:40:36 PM 55.9040 2.9370 272° West 420 483 36,000  Climbing FlightAware
Mon 05:41:37 PM 55.9081 2.7254 272° West 462 532 35,900  Descending FlightAware
Mon 05:41:45 PM 55.9090 2.7030 272° West 420 483 36,000 158 Climbing FlightAware
Mon 05:42:15 PM 55.9110 2.6020 272° West 420 483 36,000  Level FlightAware
Mon 05:42:34 PM 55.9120 2.5332 272° West 420 483 36,000  Level FlightAware
Mon 05:43:11 PM 55.9140 2.4020 272° West 420 483 36,000 -154 Level FlightAware
Mon 05:43:13 PM 55.9144 2.3953 272° West 464 534 35,900  Descending FlightAware
Mon 05:43:40 PM 55.9160 2.3140 272° West 420 483 36,000  Climbing FlightAware
Mon 05:43:43 PM 55.9161 2.2920 272° West 464 534 35,900 -182 Descending FlightAware
Mon 05:44:13 PM 55.9176 2.1884 272° West 462 532 35,900 158 Level FlightAware
Mon 05:44:21 PM 55.9180 2.1670 272° West 422 486 36,000 240 Climbing FlightAware
Mon 05:44:38 PM 55.9189 2.1038 272° West 423 487 36,000  Level FlightAware (EHTX)
Mon 05:45:15 PM 55.9210 1.9750 272° West 424 488 36,000  Level FlightAware
Mon 05:45:47 PM 55.9223 1.8600 271° West 425 489 36,000  Level FlightAware
Mon 05:46:17 PM 55.9237 1.7549 271° West 426 490 36,000  Level FlightAware
Mon 05:46:54 PM 55.9253 1.6290 271° West 426 490 36,000  Level FlightAware
Mon 05:47:24 PM 55.9264 1.5218 271° West 423 487 36,000  Level FlightAware
Mon 05:47:54 PM 55.9275 1.4180 271° West 421 484 36,000  Level FlightAware
Mon 05:48:25 PM 55.9282 1.3122 271° West 422 486 36,000  Level FlightAware
Mon 05:48:55 PM 55.9290 1.2082 271° West 419 482 36,000  Level FlightAware
Mon 05:49:31 PM 55.9300 1.0846 271° West 420 483 36,000  Level FlightAware
Mon 05:50:01 PM 55.9305 0.9798 270° West 420 483 36,000  Level FlightAware
Mon 05:50:33 PM 55.9310 0.8684 271° West 422 486 36,000  Level FlightAware
Mon 05:51:17 PM 55.9316 0.7559 271° West 422 486 36,000  Level FlightAware (EHTX)
Mon 05:51:48 PM 55.9321 0.6083 270° West 423 487 36,000  Level FlightAware (EHTX)
Mon 05:52:18 PM 55.9323 0.5036 270° West 460 529 36,000  Level FlightAware
Mon 05:52:24 PM 55.9324 0.4927 270° West 424 488 36,000  Level FlightAware (EHTX)
Mon 05:52:54 PM 55.9324 0.3790 270° West 458 527 36,000  Level FlightAware
Mon 05:52:57 PM 55.9324 0.3758 270° West 425 489 36,000  Level FlightAware
Mon 05:53:27 PM 55.9326 0.2642 270° West 426 490 36,000  Level FlightAware (EHTX)
Mon 05:53:57 PM 55.9325 0.1686 270° West 426 490 36,000  Level FlightAware (EHTX)
Mon 05:54:28 PM 55.9324 0.0525 270° West 428 493 36,000  Level FlightAware (EHTX)
Mon 05:54:59 PM 55.9321 -0.0595 270° West 427 491 36,000  Level FlightAware
Mon 05:55:29 PM 55.9319 -0.1647 270° West 427 491 36,000  Level FlightAware
Mon 05:55:49 PM 55.9314 -0.2350 269° West 427 491 36,000  Level FlightAware
Mon 05:56:02 PM 55.9284 -0.2783 263° West 425 489 36,000  Level FlightAware
Mon 05:56:09 PM 55.9245 -0.3035 255° West 422 486 36,000  Level FlightAware
Mon 05:56:23 PM 55.9154 -0.3492 250° West 425 489 36,000  Level FlightAware
Mon 05:56:58 PM 55.8925 -0.4661 251° West 426 490 36,000  Level FlightAware
Mon 05:57:31 PM 55.8715 -0.5755 251° West 425 489 36,000  Level FlightAware
Mon 05:57:38 PM 55.8670 -0.5988 251° West 427 491 36,000  Level FlightAware
Mon 05:58:13 PM 55.8451 -0.7131 251° West 428 493 36,000  Level FlightAware
Mon 05:58:43 PM 55.8254 -0.8142 251° West 429 494 36,000  Level FlightAware
Mon 05:58:58 PM 55.8159 -0.8633 251° West 429 494 36,000  Level FlightAware (WITT / BTJ)
Mon 05:59:01 PM 55.8138 -0.8744 251° West 429 494 36,000  Level FlightAware
Mon 05:59:37 PM 55.7902 -0.9952 251° West 430 495 36,000  Level FlightAware
Mon 06:00:07 PM 55.7699 -1.0988 251° West 430 495 36,000  Level FlightAware
Mon 06:00:41 PM 55.7500 -1.2020 251° West 432 497 36,000  Level FlightAware
Mon 06:00:52 PM 55.7408 -1.2468 250° West 433 498 36,000  Level FlightAware
Mon 06:01:22 PM 55.7209 -1.3465 251° West 433 498 36,000  Level FlightAware
Mon 06:01:55 PM 55.6991 -1.4549 250° West 431 496 36,000  Level FlightAware
Mon 06:02:28 PM 55.6768 -1.5662 250° West 431 496 36,000  Level FlightAware (EHTX)
Mon 06:03:04 PM 55.6526 -1.6858 250° West 460 529 36,000  Level FlightAware
Mon 06:03:08 PM 55.6500 -1.6984 250° West 429 494 36,000  Level FlightAware (EHTX)
Mon 06:03:39 PM 55.6301 -1.7960 250° West 430 495 36,000  Level FlightAware (EHTX)
Mon 06:04:18 PM 55.6009 -1.9274 249° West 430 495 36,000  Level FlightAware (EHTX)
Mon 06:04:49 PM 55.5727 -2.0183 241° Southwest 432 497 36,000  Level FlightAware (EHTX)
Mon 06:04:56 PM 55.5653 -2.0423 241° Southwest 429 494 36,000  Level FlightAware
Mon 06:05:28 PM 55.5340 -2.1440 241° Southwest 434 499 36,000  Level FlightAware (EHTX)
Mon 06:05:59 PM 55.5050 -2.2374 241° Southwest 436 502 36,000  Level FlightAware (EHTX)
Mon 06:06:29 PM 55.4772 -2.3272 241° Southwest 435 501 36,000 92 Level FlightAware (EHTX)
Mon 06:07:04 PM 55.4469 -2.4244 241° Southwest 434 499 36,100  Climbing FlightAware
Mon 06:07:37 PM 55.4113 -2.5378 241° Southwest 433 498 36,000 -95 Descending FlightAware
Mon 06:08:07 PM 55.3811 -2.6335 241° Southwest 431 496 36,000  Level FlightAware
Mon 06:08:39 PM 55.3509 -2.7289 241° Southwest 431 496 36,000  Level FlightAware (EHTX)
Mon 06:09:18 PM 55.3137 -2.8463 241° Southwest 432 497 36,000  Level FlightAware (EHTX)
Mon 06:09:49 PM 55.2861 -2.9328 241° Southwest 432 497 36,000  Level FlightAware (EHTX)
Mon 06:10:22 PM 55.2507 -3.0426 241° Southwest 433 498 36,000  Level FlightAware (EHTX)
Mon 06:10:58 PM 55.2148 -3.1542 241° Southwest 434 499 36,000  Level FlightAware (EHTX)
Mon 06:11:14 PM 55.2010 -3.1969 241° Southwest 435 501 36,000  Level FlightAware
Mon 06:11:48 PM 55.1675 -3.3002 240° Southwest 437 503 36,000  Level FlightAware (EHTX)
Mon 06:12:18 PM 55.1478 -3.3607 240° Southwest 436 502 36,000 91 Level FlightAware
Mon 06:12:54 PM 55.0998 -3.5083 240° Southwest 434 499 36,100  Climbing FlightAware
Mon 06:13:28 PM 55.0667 -3.6094 240° Southwest 432 497 36,000 -146 Descending FlightAware (EHTX)
Mon 06:13:35 PM 55.0590 -3.6330 240° Southwest 432 497 36,000  Level FlightAware
Mon 06:14:05 PM 55.0351 -3.7053 240° Southwest 431 496 36,000  Level FlightAware
Mon 06:14:35 PM 55.0000 -3.8114 240° Southwest 431 496 36,000 -94 Level FlightAware
Mon 06:15:09 PM 54.9656 -3.9150 240° Southwest 454 522 35,900  Descending FlightAware
Mon 06:15:11 PM 54.9819 -3.8659 240° Southwest 431 496 36,000 231 Climbing FlightAware
Mon 06:15:35 PM 54.9405 -3.9901 240° Southwest 432 497 36,000 -94 Level FlightAware
Mon 06:16:15 PM 54.8998 -4.1114 240° Southwest 456 525 35,900  Descending FlightAware
Mon 06:16:19 PM 54.8980 -4.1180 240° Southwest 428 493 36,000 194 Climbing FlightAware
Mon 06:16:46 PM 54.8687 -4.2038 239° Southwest 429 494 36,000  Level FlightAware (WITT / BTJ)
Mon 06:17:25 PM 54.8301 -4.3184 240° Southwest 434 499 36,000  Level FlightAware
Mon 06:17:46 PM 54.8083 -4.3825 240° Southwest 434 499 36,000  Level FlightAware
Mon 06:18:17 PM 54.7769 -4.4749 240° Southwest 429 494 36,000 -188 Level FlightAware
Mon 06:18:50 PM 54.7440 -4.5715 239° Southwest 417 480 35,800 -1,143 Descending FlightAware
Mon 06:19:20 PM 54.7155 -4.6553 240° Southwest 411 473 34,800 -2,507 Descending FlightAware
Mon 06:19:57 PM 54.6783 -4.7630 240° Southwest 442 509 33,000 -2,923 Descending FlightAware
Mon 06:19:59 PM 54.6770 -4.7667 240° Southwest 419 482 32,900 -2,824 Descending FlightAware
Mon 06:20:31 PM 54.6442 -4.8605 239° Southwest 421 484 31,400 -2,906 Descending FlightAware
Mon 06:21:03 PM 54.6125 -4.9517 239° Southwest 442 509 29,800 -3,057 Descending FlightAware
Mon 06:21:24 PM 54.6169 -4.9388 239° Southwest 423 487 28,700 -2,600 Descending FlightAware
Mon 06:21:33 PM 54.5821 -5.0385 239° Southwest 432 497 28,500 -2,000 Descending FlightAware
Mon 06:22:03 PM 54.5519 -5.1246 239° Southwest 428 493 27,400 -2,280 Descending FlightAware
Mon 06:22:23 PM 54.5296 -5.1761 232° Southwest 413 475 26,600 -2,400 Descending FlightAware
Mon 06:22:33 PM 54.5172 -5.2021 232° Southwest 420 483 26,200 -2,432 Descending FlightAware
Mon 06:23:00 PM 54.4824 -5.2645 227° Southwest 407 468 25,100 -1,862 Descending FlightAware (WITT / BTJ)
Mon 06:23:31 PM 54.4386 -5.3278 227° Southwest 389 448 24,400 -1,455 Descending FlightAware
Mon 06:23:33 PM 54.4346 -5.3334 227° Southwest 394 453 24,300 -2,063 Descending FlightAware
Mon 06:24:03 PM 54.3894 -5.3845 227° Southwest 388 447 23,300 -1,846 Descending FlightAware
Mon 06:24:12 PM 54.3759 -5.3975 227° Southwest 386 444 23,100 -1,811 Descending FlightAware (WITT / BTJ)
Mon 06:24:56 PM 54.3080 -5.4560 207° Southwest 377 434 21,700 -2,077 Descending FlightAware
Mon 06:25:30 PM 54.2536 -5.5012 206° Southwest 365 420 20,400 -2,328 Descending FlightAware (WITT / BTJ)
Mon 06:26:03 PM 54.2023 -5.5444 206° Southwest 366 421 19,100 -2,270 Descending FlightAware
Mon 06:26:07 PM 54.2034 -5.5434 206° Southwest 369 425 19,000 -1,833 Descending FlightAware
Mon 06:26:39 PM 54.1487 -5.5890 206° Southwest 363 418 18,000 -2,028 Descending FlightAware
Mon 06:27:18 PM 54.0904 -5.6373 206° Southwest 354 407 16,600 -2,087 Descending FlightAware
Mon 06:27:48 PM 54.0472 -5.6733 206° Southwest 350 403 15,600 -1,935 Descending FlightAware
Mon 06:28:20 PM 53.9997 -5.7127 206° Southwest 344 396 14,600 -2,069 Descending FlightAware
Mon 06:28:46 PM 53.9622 -5.7404 203° Southwest 348 400 13,600 -2,195 Descending FlightAware (WITT / BTJ)
Mon 06:29:01 PM 53.9390 -5.7443 186° South 350 403 13,100 -1,714 Descending FlightAware
Mon 06:29:42 PM 53.8738 -5.7479 182° South 336 387 12,000 -1,352 Descending FlightAware
Mon 06:30:12 PM 53.8278 -5.7508 182° South 321 369 11,500 -1,385 Descending FlightAware
Mon 06:30:47 PM 53.7785 -5.7546 183° South 316 364 10,500 -1,636 Descending FlightAware
Mon 06:31:07 PM 53.7480 -5.7568 183° South 316 364 10,000 -1,650 Descending FlightAware
Mon 06:31:27 PM 53.7182 -5.7589 182° South 314 361 9,400 -1,909 Descending FlightAware
Mon 06:31:51 PM 53.6841 -5.7612 182° South 314 361 8,600 -1,773 Descending FlightAware
Mon 06:32:11 PM 53.6552 -5.7631 182° South 311 358 8,100 -1,500 Descending FlightAware
Mon 06:32:31 PM 53.6261 -5.7674 185° South 306 352 7,600 -1,500 Descending FlightAware
Mon 06:33:03 PM 53.5860 -5.7999 185° South 284 327 6,800 -1,200 Descending FlightAware
Mon 06:33:21 PM 53.5646 -5.8171 205° Southwest 274 315 6,600 -500 Descending FlightAware
Mon 06:33:27 PM 53.5590 -5.8210 205° Southwest 276 318 6,600 -600 Level FlightAware
Mon 06:33:41 PM 53.5430 -5.8330 204° Southwest 270 311 6,400 -882 Descending FlightAware
Mon 06:34:01 PM 53.5210 -5.8510 206° Southwest 260 299 6,100 -1,154 Descending FlightAware
Mon 06:34:33 PM 53.4852 -5.8795 206° Southwest 248 285 5,400 -1,313 Descending FlightAware
Mon 06:34:33 PM 53.4860 -5.8790 206° Southwest 258 297 5,400 -1,071 Level FlightAware
Mon 06:35:01 PM 53.4570 -5.9020 205° Southwest 254 292 4,900 -1,200 Descending FlightAware
Mon 06:35:23 PM 53.4330 -5.9210 205° Southwest 253 291 4,400 -1,385 Descending FlightAware
Mon 06:35:53 PM 53.4080 -5.9580 221° Southwest 226 260 3,700 -1,174 Descending FlightAware
Mon 06:36:09 PM 53.4060 -5.9820 262° West 212 244 3,500 -522 Descending FlightAware
Mon 06:36:39 PM 53.4080 -6.0280 274° West 183 211 3,300 -689 Descending FlightAware
Mon 06:37:10 PM 53.4100 -6.0690 275° West 168 193 2,800 -952 Descending FlightAware
Mon 06:37:42 PM 53.4124 -6.1093 276° West 152 175 2,300 -824 Descending FlightAware (EIDW / DUB)
Mon 06:38:01 PM 53.4136 -6.1305 275° West 135 155 2,100 -732 Descending FlightAware (EIDW / DUB)
Mon 06:38:23 PM 53.4147 -6.1509 275° West 128 147 1,800 -750 Descending FlightAware (EIDW / DUB)
Mon 06:38:41 PM 53.4158 -6.1698 275° West 127 146 1,600 -750 Descending FlightAware (EIDW / DUB)
Mon 06:39:03 PM 53.4171 -6.1924 276° West 128 147 1,300 -698 Descending FlightAware (EIDW / DUB)
Mon 06:39:24 PM 53.4182 -6.2123 275° West 129 148 1,100 -732 Descending FlightAware (EIDW / DUB)
Mon 06:39:44 PM 53.4193 -6.2326 275° West 131 151 800 -600 Descending FlightAware (EIDW / DUB)
Mon 06:40:24 PM 53.4210 -6.2540 278° West 133 153 500 -269 Descending FlightAware
Mon 06:40:51 PM 53.4210 -6.2780 270° West 133 153 500  Level FlightAware

Login

Don't have an account? Register now (free) for customized features, flight alerts, and more!